createdAt,value
2018-01-06T00:01:29.497Z,99880.04
2018-01-06T00:04:06.781Z,99878.47
2018-01-06T00:06:37.181Z,99873.08
2018-01-06T00:09:08.344Z,99879.67
2018-01-06T00:11:40.756Z,99887.77
2018-01-06T00:14:12.438Z,99880.31
2018-01-06T00:16:44.256Z,99882.35
2018-01-06T00:19:16.555Z,99885.82
2018-01-06T00:21:47.205Z,99886.22
2018-01-06T00:24:19.515Z,99884.45
2018-01-06T00:26:54.435Z,99881.39
2018-01-06T00:29:29.017Z,99885.17
2018-01-06T00:32:00.400Z,99878.17
2018-01-06T00:34:31.083Z,99883.77
2018-01-06T00:37:02.483Z,99877.52
2018-01-06T00:39:34.786Z,99875.84
2018-01-06T00:42:06.666Z,99878.87
2018-01-06T00:44:39.023Z,99877.08
2018-01-06T00:47:12.450Z,99883.00
2018-01-06T00:49:43.981Z,99885.02
2018-01-06T00:52:14.816Z,99880.89
2018-01-06T00:54:47.684Z,99880.87
2018-01-06T00:57:19.034Z,99878.37
2018-01-06T00:59:49.854Z,99887.59
2018-01-06T01:02:20.468Z,99883.34
2018-01-06T01:04:50.904Z,99880.84
2018-01-06T01:07:21.424Z,99879.80
2018-01-06T01:09:52.726Z,99884.97
2018-01-06T01:12:24.876Z,99885.23
2018-01-06T01:15:01.331Z,99884.86
2018-01-06T01:17:34.035Z,99892.02
2018-01-06T01:20:05.462Z,99893.94
2018-01-06T01:22:37.377Z,99892.46
2018-01-06T01:25:08.511Z,99900.19
2018-01-06T01:27:40.183Z,99910.20
2018-01-06T01:30:15.747Z,99899.81
2018-01-06T01:32:47.143Z,99908.59
2018-01-06T01:35:18.071Z,99913.27
2018-01-06T01:37:49.139Z,99905.22
2018-01-06T01:40:21.020Z,99915.08
2018-01-06T01:42:53.375Z,99919.23
2018-01-06T01:45:24.266Z,99899.83
2018-01-06T01:47:54.949Z,99917.73
2018-01-06T01:50:25.283Z,99918.56
2018-01-06T01:52:56.752Z,99932.30
2018-01-06T01:55:27.911Z,99931.63
2018-01-06T01:57:58.563Z,99938.17
2018-01-06T02:00:29.216Z,99943.61
2018-01-06T02:03:00.990Z,99952.83
2018-01-06T02:05:32.256Z,99948.91
2018-01-06T02:08:03.633Z,99954.22
2018-01-06T02:10:34.362Z,99948.30
2018-01-06T02:13:06.150Z,99957.58
2018-01-06T02:15:36.789Z,99957.29
2018-01-06T02:18:10.104Z,99958.61
2018-01-06T02:20:42.311Z,99954.73
2018-01-06T02:23:13.071Z,99946.84
2018-01-06T02:25:45.873Z,99953.89
2018-01-06T02:28:16.860Z,99952.08
2018-01-06T02:30:50.109Z,99957.87
2018-01-06T02:33:21.936Z,99973.67
2018-01-06T02:35:53.228Z,99978.84
2018-01-06T02:38:25.954Z,99984.92
2018-01-06T02:40:58.173Z,99988.16
2018-01-06T02:43:30.709Z,99984.25
2018-01-06T02:46:04.812Z,99987.98
2018-01-06T02:48:35.577Z,99980.41
2018-01-06T02:51:06.608Z,99983.30
2018-01-06T02:53:37.565Z,99982.34
2018-01-06T02:56:10.225Z,99985.93
2018-01-06T02:58:42.327Z,99983.18
2018-01-06T03:01:13.737Z,99978.48
2018-01-06T03:03:44.907Z,99979.82
2018-01-06T03:06:15.690Z,99973.37
2018-01-06T03:08:46.452Z,99980.47
2018-01-06T03:11:17.716Z,99987.89
2018-01-06T03:13:48.006Z,99989.44
2018-01-06T03:16:18.824Z,99987.93
2018-01-06T03:18:49.381Z,99988.09
2018-01-06T03:21:19.621Z,99985.75
2018-01-06T03:23:49.898Z,99983.95
2018-01-06T03:26:21.240Z,99987.15
2018-01-06T03:28:52.144Z,99989.61
2018-01-06T03:31:28.434Z,99988.29
2018-01-06T03:34:00.348Z,99986.41
2018-01-06T03:36:30.706Z,99986.08
2018-01-06T03:39:01.772Z,99980.34
2018-01-06T03:41:32.678Z,99979.73
2018-01-06T03:44:03.162Z,99974.92
2018-01-06T03:46:34.506Z,99982.36
2018-01-06T03:49:05.612Z,99991.70
2018-01-06T03:51:36.187Z,99996.72
2018-01-06T03:54:07.034Z,99994.91
2018-01-06T03:56:37.492Z,99984.50
2018-01-06T03:59:08.721Z,99991.95
2018-01-06T04:01:40.338Z,99992.98
2018-01-06T04:04:11.150Z,99991.83
2018-01-06T04:06:42.554Z,99987.52
2018-01-06T04:09:12.946Z,99984.73
2018-01-06T04:11:44.291Z,99992.27
2018-01-06T04:14:15.503Z,99987.52
2018-01-06T04:16:46.228Z,99980.70
2018-01-06T04:19:16.803Z,99983.42
2018-01-06T04:21:47.413Z,99959.97
2018-01-06T04:24:18.692Z,99984.50
2018-01-06T04:26:49.951Z,99993.23
2018-01-06T04:29:20.387Z,100008.72
2018-01-06T04:31:56.214Z,100014.31
2018-01-06T04:34:26.757Z,100014.90
2018-01-06T04:37:03.878Z,100008.22
2018-01-06T04:39:34.554Z,100002.78
2018-01-06T04:42:05.024Z,100014.23
2018-01-06T04:44:35.286Z,100023.69
2018-01-06T04:47:06.959Z,100021.69
2018-01-06T04:49:37.450Z,100022.49
2018-01-06T04:52:08.016Z,100027.11
2018-01-06T04:54:38.640Z,100024.86
2018-01-06T04:57:09.351Z,100027.02
2018-01-06T04:59:39.749Z,100027.96
2018-01-06T05:02:10.267Z,100019.41
2018-01-06T05:04:40.896Z,100020.98
2018-01-06T05:07:11.477Z,100034.63
2018-01-06T05:09:42.273Z,100036.16
2018-01-06T05:12:12.914Z,100035.20
2018-01-06T05:14:43.434Z,100044.08
2018-01-06T05:17:14.321Z,100045.98
2018-01-06T05:19:45.169Z,100049.77
2018-01-06T05:22:15.460Z,100052.39
2018-01-06T05:24:45.809Z,100047.58
2018-01-06T05:27:16.354Z,100047.37
2018-01-06T05:29:47.353Z,100058.98
2018-01-06T05:32:18.404Z,100067.37
2018-01-06T05:34:48.757Z,100068.16
2018-01-06T05:37:19.968Z,100078.47
2018-01-06T05:39:50.725Z,100083.56
2018-01-06T05:42:21.055Z,100077.28
2018-01-06T05:44:51.299Z,100076.95
2018-01-06T05:47:21.751Z,100064.41
2018-01-06T05:49:52.019Z,100066.94
2018-01-06T05:52:22.766Z,100060.38
2018-01-06T05:54:53.596Z,100061.95
2018-01-06T05:57:23.973Z,100057.13
2018-01-06T05:59:54.490Z,100057.77
2018-01-06T06:02:25.011Z,100065.20
2018-01-06T06:04:55.970Z,100066.73
2018-01-06T06:07:26.953Z,100069.59
2018-01-06T06:09:57.362Z,100079.72
2018-01-06T06:12:28.176Z,100076.98
2018-01-06T06:14:58.413Z,100066.48
2018-01-06T06:17:29.690Z,100054.79
2018-01-06T06:20:00.666Z,100059.75
2018-01-06T06:22:31.032Z,100065.41
2018-01-06T06:25:01.918Z,100070.13
2018-01-06T06:27:32.742Z,100075.45
2018-01-06T06:30:07.691Z,100081.13
2018-01-06T06:32:38.318Z,100083.96
2018-01-06T06:35:09.883Z,100090.94
2018-01-06T06:37:41.478Z,100088.92
2018-01-06T06:40:12.062Z,100086.22
2018-01-06T06:42:44.576Z,100078.64
2018-01-06T06:45:16.832Z,100085.61
2018-01-06T06:47:48.396Z,100085.91
2018-01-06T06:50:19.720Z,100088.50
2018-01-06T06:52:50.146Z,100089.64
2018-01-06T06:55:20.364Z,100086.84
2018-01-06T06:57:51.536Z,100102.19
2018-01-06T07:00:22.291Z,100106.67
2018-01-06T07:02:53.836Z,100056.23
2018-01-06T07:05:24.369Z,100098.19
2018-01-06T07:07:54.935Z,100099.39
2018-01-06T07:10:26.043Z,100098.40
2018-01-06T07:12:57.459Z,100094.76
2018-01-06T07:15:28.020Z,100107.41
2018-01-06T07:17:58.680Z,100106.81
2018-01-06T07:20:28.975Z,100110.94
2018-01-06T07:22:59.853Z,100122.97
2018-01-06T07:25:36.943Z,100129.11
2018-01-06T07:28:07.904Z,100128.48
2018-01-06T07:30:38.380Z,100129.23
2018-01-06T07:33:12.637Z,100135.96
2018-01-06T07:35:43.979Z,100146.05
2018-01-06T07:38:14.844Z,100139.79
2018-01-06T07:40:45.347Z,100147.12
2018-01-06T07:43:16.700Z,100142.02
2018-01-06T07:45:47.397Z,100144.69
2018-01-06T07:48:23.564Z,100150.91
2018-01-06T07:50:54.837Z,100154.95
2018-01-06T07:53:25.646Z,100163.34
2018-01-06T07:55:56.177Z,100161.78
2018-01-06T07:58:26.443Z,100151.94
2018-01-06T08:00:59.015Z,100154.31
2018-01-06T08:03:29.630Z,100155.81
2018-01-06T08:06:01.093Z,100156.16
2018-01-06T08:08:32.330Z,100158.27
2018-01-06T08:11:02.929Z,100159.30
2018-01-06T08:13:33.350Z,100170.64
2018-01-06T08:16:12.259Z,100182.98
2018-01-06T08:18:42.810Z,100181.28
2018-01-06T08:21:15.103Z,100192.67
2018-01-06T08:23:45.557Z,100196.22
2018-01-06T08:26:16.519Z,100194.25
2018-01-06T08:28:48.963Z,100201.41
2018-01-06T08:31:20.294Z,100199.30
2018-01-06T08:33:50.621Z,100212.05
2018-01-06T08:36:20.759Z,100208.13
2018-01-06T08:38:52.501Z,100203.11
2018-01-06T08:41:23.482Z,100218.30
2018-01-06T08:43:53.993Z,100217.84
2018-01-06T08:46:24.882Z,100222.69
2018-01-06T08:48:56.347Z,100227.08
2018-01-06T08:51:28.226Z,100234.27
2018-01-06T08:53:59.781Z,100243.50
2018-01-06T08:56:30.172Z,100242.14
2018-01-06T08:59:02.313Z,100244.31
2018-01-06T09:01:33.308Z,100246.98
2018-01-06T09:04:04.182Z,100248.84
2018-01-06T09:06:35.169Z,100256.45
2018-01-06T09:09:06.586Z,100256.45
2018-01-06T09:11:37.365Z,100247.87
2018-01-06T09:14:07.920Z,100255.81
2018-01-06T09:16:38.899Z,100264.81
2018-01-06T09:19:09.295Z,100268.20
2018-01-06T09:21:51.135Z,100268.64
2018-01-06T09:24:22.806Z,100272.98
2018-01-06T09:26:55.915Z,100270.03
2018-01-06T09:29:27.192Z,100274.80
2018-01-06T09:31:57.823Z,100277.70
2018-01-06T09:34:28.518Z,100279.69
2018-01-06T09:36:59.238Z,100288.98
2018-01-06T09:39:29.981Z,100295.64
2018-01-06T09:42:08.302Z,100297.00
2018-01-06T09:44:38.683Z,100302.96
2018-01-06T09:47:09.679Z,100294.56
2018-01-06T09:49:40.417Z,100299.95
2018-01-06T09:52:10.813Z,100303.80
2018-01-06T09:54:43.400Z,100307.84
2018-01-06T09:57:15.562Z,100313.03
2018-01-06T09:59:48.678Z,100311.63
2018-01-06T10:02:19.546Z,100310.72
2018-01-06T10:04:50.680Z,100317.55
2018-01-06T10:07:22.419Z,100319.38
2018-01-06T10:09:53.595Z,100320.91
2018-01-06T10:12:24.333Z,100318.44
2018-01-06T10:14:56.243Z,100324.64
2018-01-06T10:17:27.563Z,100321.56
2018-01-06T10:19:58.180Z,100329.97
2018-01-06T10:22:30.571Z,100330.38
2018-01-06T10:25:03.153Z,100333.66
2018-01-06T10:27:37.452Z,100333.13
2018-01-06T10:30:08.868Z,100326.83
2018-01-06T10:32:40.349Z,100325.72
2018-01-06T10:35:11.537Z,100333.46
2018-01-06T10:37:43.006Z,100331.53
2018-01-06T10:40:14.390Z,100338.76
2018-01-06T10:42:45.562Z,100339.60
2018-01-06T10:45:19.517Z,100335.92
2018-01-06T10:47:58.089Z,100341.58
2018-01-06T10:50:30.690Z,100343.42
2018-01-06T10:53:04.207Z,100341.27
2018-01-06T10:55:34.828Z,100341.81
2018-01-06T10:58:05.888Z,100340.66
2018-01-06T11:00:41.995Z,100347.64
2018-01-06T11:03:14.851Z,100347.58
2018-01-06T11:05:47.324Z,100353.58
2018-01-06T11:11:06.939Z,100358.05
2018-01-06T11:13:44.883Z,100366.83
2018-01-06T11:16:21.501Z,100360.91
2018-01-06T11:18:59.302Z,100351.12
2018-01-06T11:21:33.527Z,100358.73
2018-01-06T11:24:11.685Z,100365.75
2018-01-06T11:26:47.680Z,100372.67
2018-01-06T11:29:24.637Z,100368.54
2018-01-06T11:32:17.011Z,100371.95
2018-01-06T11:34:58.399Z,100370.66
2018-01-06T11:37:33.093Z,100373.98
2018-01-06T11:40:13.456Z,100370.30
2018-01-06T11:45:47.628Z,100363.39
2018-01-06T11:48:27.588Z,100365.64
2018-01-06T11:51:03.338Z,100364.55
2018-01-06T11:53:38.662Z,100369.77
2018-01-06T11:56:19.657Z,100366.30
2018-01-06T11:59:12.463Z,100360.20
2018-01-06T12:01:47.584Z,100367.17
2018-01-06T12:04:21.268Z,100336.22
2018-01-06T12:07:04.992Z,100367.14
2018-01-06T12:09:44.654Z,100365.71
2018-01-06T12:12:20.113Z,100371.88
2018-01-06T12:14:55.928Z,100373.18
2018-01-06T12:17:35.058Z,100370.58
2018-01-06T12:20:12.185Z,100378.47
2018-01-06T12:22:47.730Z,100380.09
2018-01-06T12:25:27.493Z,100385.45
2018-01-06T12:28:03.871Z,100387.62
2018-01-06T12:30:45.222Z,100382.27
2018-01-06T12:33:22.210Z,100392.52
2018-01-06T12:35:58.130Z,100393.30
2018-01-06T12:38:34.378Z,100393.83
2018-01-06T12:41:12.314Z,100392.56
2018-01-06T12:43:52.846Z,100386.51
2018-01-06T12:46:29.226Z,100386.79
2018-01-06T12:49:03.692Z,100390.69
2018-01-06T12:51:38.534Z,100388.44
2018-01-06T12:54:09.819Z,100389.91
2018-01-06T12:56:40.786Z,100390.95
2018-01-06T12:59:11.557Z,100388.97
2018-01-06T13:01:45.389Z,100398.30
2018-01-06T13:04:17.586Z,100397.38
2018-01-06T13:06:48.216Z,100400.22
2018-01-06T13:09:20.117Z,100400.05
2018-01-06T13:11:59.834Z,100398.59
2018-01-06T13:14:37.689Z,100410.84
2018-01-06T13:17:13.240Z,100410.03
2018-01-06T13:19:49.171Z,100417.25
2018-01-06T13:22:27.532Z,100417.77
2018-01-06T13:25:05.188Z,100427.75
2018-01-06T13:27:42.527Z,100423.66
2018-01-06T13:30:20.125Z,100437.71
2018-01-06T13:32:59.622Z,100435.30
2018-01-06T13:35:34.277Z,100443.37
2018-01-06T13:38:10.243Z,100439.25
2018-01-06T13:40:44.460Z,100437.83
2018-01-06T13:43:18.817Z,100434.33
2018-01-06T13:45:53.282Z,100443.27
2018-01-06T13:48:32.566Z,100447.67
2018-01-06T13:51:04.963Z,100460.02
2018-01-06T13:53:37.410Z,100464.13
2018-01-06T13:56:12.345Z,100463.34
2018-01-06T13:58:49.003Z,100472.27
2018-01-06T14:01:24.095Z,100468.59
2018-01-06T14:03:59.816Z,100471.86
2018-01-06T14:06:31.742Z,100477.93
2018-01-06T14:09:07.951Z,100488.25
2018-01-06T14:11:39.912Z,100478.34
2018-01-06T14:14:11.531Z,100484.98
2018-01-06T14:16:43.736Z,100484.27
2018-01-06T14:19:16.812Z,100492.71
2018-01-06T14:21:53.382Z,100498.46
2018-01-06T14:24:36.581Z,100501.41
2018-01-06T14:27:13.116Z,100505.62
2018-01-06T14:29:45.606Z,100504.70
2018-01-06T14:32:24.182Z,100501.51
2018-01-06T14:35:19.937Z,100500.36
2018-01-06T14:37:52.517Z,100496.70
2018-01-06T14:40:23.455Z,100501.41
2018-01-06T14:43:03.288Z,100500.69
2018-01-06T14:45:36.706Z,100507.54
2018-01-06T14:48:12.356Z,100502.23
2018-01-06T14:50:42.969Z,100510.56
2018-01-06T14:53:28.167Z,100501.78
2018-01-06T14:56:04.580Z,100521.47
2018-01-06T14:58:37.457Z,100522.02
2018-01-06T15:01:12.132Z,100517.52
2018-01-06T15:03:44.533Z,100523.22
2018-01-06T15:06:18.309Z,100515.92
2018-01-06T15:08:55.526Z,100515.10
2018-01-06T15:11:51.824Z,100515.64
2018-01-06T15:14:27.290Z,100515.27
2018-01-06T15:17:00.158Z,100520.45
2018-01-06T15:19:31.847Z,100521.16
2018-01-06T15:22:05.538Z,100525.72
2018-01-06T15:24:48.126Z,100526.75
2018-01-06T15:27:21.964Z,100526.75
2018-01-06T15:29:55.007Z,100542.04
2018-01-06T15:32:32.566Z,100546.57
2018-01-06T15:35:07.211Z,100545.46
2018-01-06T15:37:39.097Z,100540.66
2018-01-06T15:40:12.098Z,100548.79
2018-01-06T15:42:43.959Z,100549.88
2018-01-06T15:45:17.736Z,100549.05
2018-01-06T15:47:48.238Z,100553.11
2018-01-06T15:50:18.869Z,100558.22
2018-01-06T15:52:49.659Z,100559.77
2018-01-06T15:55:23.567Z,100558.10
2018-01-06T15:57:59.162Z,100562.44
2018-01-06T16:00:32.162Z,100566.30
2018-01-06T16:03:04.453Z,100566.30
2018-01-06T16:05:34.973Z,100569.02
2018-01-06T16:08:25.487Z,100573.70
2018-01-06T16:10:56.368Z,100574.47
2018-01-06T16:13:27.933Z,100582.09
2018-01-06T16:16:01.189Z,100584.41
2018-01-06T16:18:37.779Z,100580.63
2018-01-06T16:21:20.951Z,100582.09
2018-01-06T16:23:52.832Z,100596.74
2018-01-06T16:26:26.469Z,100595.05
2018-01-06T16:29:01.912Z,100600.78
2018-01-06T16:31:39.903Z,100609.61
2018-01-06T16:37:05.871Z,100625.53
2018-01-06T16:39:38.153Z,100633.52
2018-01-06T16:42:13.397Z,100635.68
2018-01-06T16:44:48.434Z,100642.00
2018-01-06T16:47:23.896Z,100645.42
2018-01-06T16:49:59.359Z,100652.19
2018-01-06T16:52:38.018Z,100649.05
2018-01-06T16:55:14.487Z,100641.89
2018-01-06T16:57:50.521Z,100640.19
2018-01-06T17:00:24.830Z,100650.63
2018-01-06T17:02:57.746Z,100664.42
2018-01-06T17:05:34.270Z,100667.02
2018-01-06T17:08:08.480Z,100665.62
2018-01-06T17:10:40.445Z,100661.36
2018-01-06T17:13:11.862Z,100666.25
2018-01-06T17:15:47.084Z,100668.03
2018-01-06T17:18:20.362Z,100668.47
2018-01-06T17:20:54.502Z,100675.98
2018-01-06T17:23:27.767Z,100677.46
2018-01-06T17:26:03.730Z,100677.49
2018-01-06T17:28:41.877Z,100696.27
2018-01-06T17:31:16.127Z,100698.70
2018-01-06T17:33:47.386Z,100713.85
2018-01-06T17:36:19.344Z,100715.88
2018-01-06T17:38:51.459Z,100708.23
2018-01-06T17:41:24.022Z,100717.13
2018-01-06T17:43:56.894Z,100716.47
2018-01-06T17:46:28.298Z,100724.28
2018-01-06T17:48:59.687Z,100730.23
2018-01-06T17:51:37.367Z,100740.39
2018-01-06T17:54:09.235Z,100745.18
2018-01-06T17:56:41.823Z,100742.97
2018-01-06T17:59:13.195Z,100753.39
2018-01-06T18:01:47.966Z,100762.78
2018-01-06T18:04:24.898Z,100758.45
2018-01-06T18:06:56.749Z,100762.68
2018-01-06T18:09:29.046Z,100763.55
2018-01-06T18:12:01.628Z,100774.84
2018-01-06T18:14:33.617Z,100774.08
2018-01-06T18:17:05.781Z,100779.34
2018-01-06T18:19:41.105Z,100797.45
2018-01-06T18:22:17.803Z,100807.27
2018-01-06T18:24:49.008Z,100773.23
2018-01-06T18:27:21.211Z,100809.35
2018-01-06T18:29:54.596Z,100821.10
2018-01-06T18:32:29.424Z,100822.67
2018-01-06T18:35:03.031Z,100827.00
2018-01-06T18:37:34.720Z,100835.17
2018-01-06T18:40:06.254Z,100837.76
2018-01-06T18:42:38.689Z,100833.19
2018-01-06T18:45:14.124Z,100830.98
2018-01-06T18:47:47.368Z,100840.66
2018-01-06T18:50:22.003Z,100846.02
2018-01-06T18:52:55.885Z,100844.65
2018-01-06T18:55:27.599Z,100849.48
2018-01-06T18:58:00.861Z,100841.45
2018-01-06T19:00:37.849Z,100840.49
2018-01-06T19:03:12.297Z,100842.62
2018-01-06T19:05:45.668Z,100843.44
2018-01-06T19:08:17.917Z,100858.45
2018-01-06T19:10:49.731Z,100861.44
2018-01-06T19:13:23.197Z,100863.63
2018-01-06T19:15:57.592Z,100859.16
2018-01-06T19:18:31.065Z,100868.29
2018-01-06T19:21:03.202Z,100872.81
2018-01-06T19:23:40.076Z,100878.27
2018-01-06T19:26:21.992Z,100887.13
2018-01-06T19:28:55.156Z,100895.20
2018-01-06T19:31:32.059Z,100889.58
2018-01-06T19:34:14.608Z,100899.98
2018-01-06T19:36:52.676Z,100904.55
2018-01-06T19:39:28.838Z,100910.45
2018-01-06T19:42:03.882Z,100917.58
2018-01-06T19:44:39.684Z,100923.68
2018-01-06T19:47:17.260Z,100924.42
2018-01-06T19:49:59.913Z,100931.70
2018-01-06T19:52:50.664Z,100932.86
2018-01-06T19:55:28.199Z,100945.17
2018-01-06T19:58:04.882Z,100943.15
2018-01-06T20:00:41.716Z,100951.31
2018-01-06T20:03:15.819Z,100954.38
2018-01-06T20:05:51.907Z,100958.39
2018-01-06T20:08:28.323Z,100960.67
2018-01-06T20:11:05.326Z,100965.43
2018-01-06T20:13:37.918Z,100966.05
2018-01-06T20:16:10.884Z,100966.78
2018-01-06T20:18:45.169Z,100964.81
2018-01-06T20:21:21.032Z,100975.30
2018-01-06T20:24:05.483Z,100967.34
2018-01-06T20:26:40.363Z,100971.94
2018-01-06T20:29:14.872Z,100973.20
2018-01-06T20:31:47.661Z,100967.66
2018-01-06T20:34:23.538Z,100985.28
2018-01-06T20:36:56.799Z,100987.62
2018-01-06T20:39:29.126Z,100993.97
2018-01-06T20:41:59.917Z,100986.73
2018-01-06T20:44:30.771Z,100995.30
2018-01-06T20:47:02.778Z,100999.72
2018-01-06T20:49:33.852Z,100998.27
2018-01-06T20:52:05.482Z,101002.54
2018-01-06T20:54:36.641Z,101008.70
2018-01-06T20:57:07.412Z,101016.28
2018-01-06T20:59:38.261Z,101024.92
2018-01-06T21:02:09.371Z,101025.33
2018-01-06T21:04:40.458Z,101026.05
2018-01-06T21:07:22.971Z,101036.06
2018-01-06T21:09:54.097Z,101038.59
2018-01-06T21:12:25.062Z,101034.27
2018-01-06T21:14:55.882Z,101041.59
2018-01-06T21:17:27.488Z,101052.41
2018-01-06T21:19:59.929Z,101042.22
2018-01-06T21:22:32.517Z,101049.89
2018-01-06T21:25:05.526Z,101054.66
2018-01-06T21:27:38.665Z,101051.61
2018-01-06T21:30:15.744Z,101057.77
2018-01-06T21:32:51.372Z,101054.82
2018-01-06T21:35:29.405Z,101062.38
2018-01-06T21:38:12.441Z,101056.57
2018-01-06T21:40:47.383Z,101058.03
2018-01-06T21:43:21.216Z,101067.45
2018-01-06T21:45:56.868Z,101066.52
2018-01-06T21:48:31.693Z,101062.81
2018-01-06T21:51:03.798Z,101073.19
2018-01-06T21:53:35.798Z,101077.52
2018-01-06T21:56:07.838Z,101076.39
2018-01-06T21:58:39.706Z,101080.19
2018-01-06T22:01:10.727Z,101084.32
2018-01-06T22:03:41.853Z,101089.86
2018-01-06T22:06:14.212Z,101093.89
2018-01-06T22:08:46.614Z,101099.25
2018-01-06T22:11:20.134Z,101099.13
2018-01-06T22:13:50.970Z,101098.84
2018-01-06T22:16:22.935Z,101092.70
2018-01-06T22:19:00.519Z,101119.81
2018-01-06T22:21:35.123Z,101118.64
2018-01-06T22:24:10.618Z,101114.29
2018-01-06T22:26:41.643Z,101131.24
2018-01-06T22:29:12.907Z,101133.31
2018-01-06T22:31:44.475Z,101127.73
2018-01-06T22:34:16.425Z,101137.63
2018-01-06T22:36:47.688Z,101138.48
2018-01-06T22:39:19.118Z,101136.64
2018-01-06T22:41:50.918Z,101142.69
2018-01-06T22:44:32.809Z,101140.17
2018-01-06T22:47:04.661Z,101141.08
2018-01-06T22:49:36.648Z,101152.11
2018-01-06T22:52:07.678Z,101157.98
2018-01-06T22:54:41.242Z,101153.67
2018-01-06T22:57:13.821Z,101156.45
2018-01-06T22:59:44.737Z,101156.70
2018-01-06T23:02:16.506Z,101160.72
2018-01-06T23:04:48.310Z,101164.28
2018-01-06T23:07:21.193Z,101179.99
2018-01-06T23:09:53.570Z,101177.35
2018-01-06T23:12:26.415Z,101188.22
2018-01-06T23:14:58.386Z,101189.82
2018-01-06T23:17:31.306Z,101195.50
2018-01-06T23:20:02.604Z,101201.23
2018-01-06T23:22:34.027Z,101198.77
2018-01-06T23:25:08.424Z,101197.92
2018-01-06T23:27:39.663Z,101200.72
2018-01-06T23:30:14.132Z,101201.76
2018-01-06T23:32:46.518Z,101210.09
2018-01-06T23:35:20.764Z,101212.00
2018-01-06T23:37:55.712Z,101207.20
2018-01-06T23:40:27.622Z,101212.42
2018-01-06T23:42:59.542Z,101210.33
2018-01-06T23:45:32.908Z,101219.61
2018-01-06T23:48:07.242Z,101229.37
2018-01-06T23:50:44.280Z,101224.29
2018-01-06T23:53:18.348Z,101236.92
2018-01-06T23:55:49.384Z,101230.72
2018-01-06T23:58:26.526Z,101239.52
